sensor_id;sensor_type;location;lat;lon;timestamp;P1;durP1;ratioP1;P2;durP2;ratioP2
7475;SDS011;3779;49.216;8.650;2023-03-21T00:00:53;4.03;;;2.90;;
7475;SDS011;3779;49.216;8.650;2023-03-21T00:03:40;2.67;;;2.47;;
7475;SDS011;3779;49.216;8.650;2023-03-21T00:06:53;4.43;;;2.80;;
7475;SDS011;3779;49.216;8.650;2023-03-21T00:10:12;3.63;;;2.53;;
7475;SDS011;3779;49.216;8.650;2023-03-21T00:13:14;2.87;;;2.57;;
7475;SDS011;3779;49.216;8.650;2023-03-21T00:16:19;2.77;;;2.47;;
7475;SDS011;3779;49.216;8.650;2023-03-21T00:19:52;2.80;;;2.50;;
7475;SDS011;3779;49.216;8.650;2023-03-21T00:23:00;3.10;;;2.63;;
7475;SDS011;3779;49.216;8.650;2023-03-21T00:25:50;3.77;;;2.43;;
7475;SDS011;3779;49.216;8.650;2023-03-21T00:28:54;2.77;;;2.53;;
7475;SDS011;3779;49.216;8.650;2023-03-21T00:32:04;3.40;;;3.00;;
7475;SDS011;3779;49.216;8.650;2023-03-21T00:35:35;2.67;;;2.47;;
7475;SDS011;3779;49.216;8.650;2023-03-21T00:38:34;4.90;;;2.43;;
7475;SDS011;3779;49.216;8.650;2023-03-21T00:41:28;5.10;;;2.70;;
7475;SDS011;3779;49.216;8.650;2023-03-21T00:44:49;2.50;;;2.00;;
7475;SDS011;3779;49.216;8.650;2023-03-21T00:48:28;3.58;;;2.53;;
7475;SDS011;3779;49.216;8.650;2023-03-21T00:51:21;2.90;;;2.60;;
7475;SDS011;3779;49.216;8.650;2023-03-21T00:54:32;3.30;;;2.58;;
7475;SDS011;3779;49.216;8.650;2023-03-21T01:00:38;2.60;;;2.40;;
7475;SDS011;3779;49.216;8.650;2023-03-21T01:03:29;3.57;;;2.40;;
7475;SDS011;3779;49.216;8.650;2023-03-21T01:06:49;3.73;;;2.20;;
7475;SDS011;3779;49.216;8.650;2023-03-21T01:10:21;3.27;;;2.47;;
7475;SDS011;3779;49.216;8.650;2023-03-21T01:14:20;3.45;;;2.40;;
7475;SDS011;3779;49.216;8.650;2023-03-21T01:18:36;3.00;;;2.70;;
7475;SDS011;3779;49.216;8.650;2023-03-21T01:22:52;3.78;;;2.70;;
7475;SDS011;3779;49.216;8.650;2023-03-21T01:26:56;3.97;;;2.67;;
7475;SDS011;3779;49.216;8.650;2023-03-21T01:31:22;2.57;;;2.17;;
7475;SDS011;3779;49.216;8.650;2023-03-21T01:35:26;4.27;;;2.30;;
7475;SDS011;3779;49.216;8.650;2023-03-21T01:39:05;2.60;;;2.40;;
7475;SDS011;3779;49.216;8.650;2023-03-21T01:47:42;4.43;;;2.77;;
7475;SDS011;3779;49.216;8.650;2023-03-21T01:52:02;4.83;;;2.20;;
7475;SDS011;3779;49.216;8.650;2023-03-21T01:56:04;4.93;;;2.90;;
7475;SDS011;3779;49.216;8.650;2023-03-21T02:03:17;2.63;;;2.40;;
7475;SDS011;3779;49.216;8.650;2023-03-21T02:06:22;3.37;;;2.53;;
7475;SDS011;3779;49.216;8.650;2023-03-21T02:10:09;4.05;;;2.38;;
7475;SDS011;3779;49.216;8.650;2023-03-21T21:01:39;4.60;;;3.87;;
7475;SDS011;3779;49.216;8.650;2023-03-21T21:04:28;4.83;;;4.33;;
7475;SDS011;3779;49.216;8.650;2023-03-21T21:07:19;4.77;;;4.27;;
7475;SDS011;3779;49.216;8.650;2023-03-21T21:10:07;8.07;;;4.30;;
7475;SDS011;3779;49.216;8.650;2023-03-21T21:12:56;4.63;;;3.27;;
7475;SDS011;3779;49.216;8.650;2023-03-21T21:15:43;4.22;;;3.20;;
7475;SDS011;3779;49.216;8.650;2023-03-21T21:18:33;3.87;;;3.00;;
7475;SDS011;3779;49.216;8.650;2023-03-21T21:22:34;5.07;;;3.60;;
7475;SDS011;3779;49.216;8.650;2023-03-21T21:27:20;5.03;;;3.60;;
7475;SDS011;3779;49.216;8.650;2023-03-21T21:32:09;4.67;;;3.90;;
7475;SDS011;3779;49.216;8.650;2023-03-21T21:46:24;4.75;;;3.10;;
7475;SDS011;3779;49.216;8.650;2023-03-21T21:50:40;3.77;;;2.70;;
7475;SDS011;3779;49.216;8.650;2023-03-21T21:53:34;9.33;;;4.00;;
7475;SDS011;3779;49.216;8.650;2023-03-21T21:58:19;4.80;;;3.60;;
7475;SDS011;3779;49.216;8.650;2023-03-21T22:01:59;5.97;;;3.47;;
7475;SDS011;3779;49.216;8.650;2023-03-21T22:04:53;7.15;;;3.80;;
7475;SDS011;3779;49.216;8.650;2023-03-21T22:08:18;4.70;;;3.67;;
7475;SDS011;3779;49.216;8.650;2023-03-21T22:12:23;6.13;;;3.60;;
7475;SDS011;3779;49.216;8.650;2023-03-21T22:15:13;6.70;;;3.90;;
7475;SDS011;3779;49.216;8.650;2023-03-21T22:18:09;4.67;;;3.70;;
7475;SDS011;3779;49.216;8.650;2023-03-21T22:24:51;4.90;;;3.75;;
7475;SDS011;3779;49.216;8.650;2023-03-21T22:29:09;9.60;;;4.00;;
7475;SDS011;3779;49.216;8.650;2023-03-21T22:33:17;5.53;;;3.63;;
7475;SDS011;3779;49.216;8.650;2023-03-21T22:37:47;5.18;;;3.55;;
7475;SDS011;3779;49.216;8.650;2023-03-21T22:42:12;4.30;;;3.60;;
7475;SDS011;3779;49.216;8.650;2023-03-21T22:50:17;8.98;;;5.25;;
7475;SDS011;3779;49.216;8.650;2023-03-21T22:53:48;8.20;;;5.83;;
7475;SDS011;3779;49.216;8.650;2023-03-21T22:57:55;5.60;;;4.30;;
7475;SDS011;3779;49.216;8.650;2023-03-21T23:09:10;5.55;;;3.65;;
7475;SDS011;3779;49.216;8.650;2023-03-21T23:12:55;4.60;;;3.50;;
7475;SDS011;3779;49.216;8.650;2023-03-21T23:16:36;3.95;;;3.55;;
7475;SDS011;3779;49.216;8.650;2023-03-21T23:20:04;3.90;;;3.13;;
7475;SDS011;3779;49.216;8.650;2023-03-21T23:23:12;3.80;;;3.40;;
7475;SDS011;3779;49.216;8.650;2023-03-21T23:27:19;4.03;;;3.50;;
7475;SDS011;3779;49.216;8.650;2023-03-21T23:31:20;4.67;;;3.80;;
7475;SDS011;3779;49.216;8.650;2023-03-21T23:34:28;5.37;;;3.47;;
7475;SDS011;3779;49.216;8.650;2023-03-21T23:37:42;3.83;;;3.53;;
7475;SDS011;3779;49.216;8.650;2023-03-21T23:40:58;4.20;;;3.53;;
7475;SDS011;3779;49.216;8.650;2023-03-21T23:44:52;8.93;;;4.20;;
7475;SDS011;3779;49.216;8.650;2023-03-21T23:49:15;7.15;;;3.90;;
7475;SDS011;3779;49.216;8.650;2023-03-21T23:53:59;7.17;;;3.50;;
7475;SDS011;3779;49.216;8.650;2023-03-21T23:58:40;6.35;;;4.05;;
